sensor_id;sensor_type;location;lat;lon;timestamp;temperature;humidity
5192;DHT22;2615;44.524;11.284;2024-02-15T00:00:09;9.30;55.20
5192;DHT22;2615;44.524;11.284;2024-02-15T00:02:38;9.30;55.30
5192;DHT22;2615;44.524;11.284;2024-02-15T00:05:07;9.30;55.40
5192;DHT22;2615;44.524;11.284;2024-02-15T00:07:35;9.30;55.40
5192;DHT22;2615;44.524;11.284;2024-02-15T00:10:04;9.30;55.40
5192;DHT22;2615;44.524;11.284;2024-02-15T00:12:34;9.30;55.40
5192;DHT22;2615;44.524;11.284;2024-02-15T00:15:03;9.30;55.40
5192;DHT22;2615;44.524;11.284;2024-02-15T00:17:31;9.30;55.40
5192;DHT22;2615;44.524;11.284;2024-02-15T00:20:02;9.30;55.40
5192;DHT22;2615;44.524;11.284;2024-02-15T00:22:36;9.30;55.40
5192;DHT22;2615;44.524;11.284;2024-02-15T00:25:04;9.30;55.40
5192;DHT22;2615;44.524;11.284;2024-02-15T00:27:37;9.30;55.30
5192;DHT22;2615;44.524;11.284;2024-02-15T00:30:06;9.30;55.40
5192;DHT22;2615;44.524;11.284;2024-02-15T00:32:35;9.30;55.40
5192;DHT22;2615;44.524;11.284;2024-02-15T00:35:04;9.30;55.40
5192;DHT22;2615;44.524;11.284;2024-02-15T00:37:35;9.30;55.40
5192;DHT22;2615;44.524;11.284;2024-02-15T00:40:04;9.30;55.40
5192;DHT22;2615;44.524;11.284;2024-02-15T00:42:32;9.30;55.40
5192;DHT22;2615;44.524;11.284;2024-02-15T00:45:02;9.40;55.50
5192;DHT22;2615;44.524;11.284;2024-02-15T00:47:31;9.40;55.50
5192;DHT22;2615;44.524;11.284;2024-02-15T00:50:00;9.40;55.50
5192;DHT22;2615;44.524;11.284;2024-02-15T00:52:28;9.40;55.50
5192;DHT22;2615;44.524;11.284;2024-02-15T00:54:57;9.40;55.50
5192;DHT22;2615;44.524;11.284;2024-02-15T00:57:25;9.40;55.50
5192;DHT22;2615;44.524;11.284;2024-02-15T00:59:54;9.40;55.50
5192;DHT22;2615;44.524;11.284;2024-02-15T01:02:23;9.40;55.50
5192;DHT22;2615;44.524;11.284;2024-02-15T01:04:51;9.40;55.50
5192;DHT22;2615;44.524;11.284;2024-02-15T01:07:22;9.40;55.50
5192;DHT22;2615;44.524;11.284;2024-02-15T01:09:54;9.40;55.50
5192;DHT22;2615;44.524;11.284;2024-02-15T01:12:22;9.40;55.50
5192;DHT22;2615;44.524;11.284;2024-02-15T01:14:50;9.40;55.50
5192;DHT22;2615;44.524;11.284;2024-02-15T01:17:19;9.40;55.50
5192;DHT22;2615;44.524;11.284;2024-02-15T01:19:48;9.40;55.60
5192;DHT22;2615;44.524;11.284;2024-02-15T01:22:16;9.30;55.50
5192;DHT22;2615;44.524;11.284;2024-02-15T01:24:45;9.30;55.50
5192;DHT22;2615;44.524;11.284;2024-02-15T01:27:13;9.30;55.50
5192;DHT22;2615;44.524;11.284;2024-02-15T01:29:41;9.30;55.50
5192;DHT22;2615;44.524;11.284;2024-02-15T01:32:10;9.30;55.50
5192;DHT22;2615;44.524;11.284;2024-02-15T01:34:38;9.30;55.50
5192;DHT22;2615;44.524;11.284;2024-02-15T01:37:07;9.30;55.50
5192;DHT22;2615;44.524;11.284;2024-02-15T01:39:36;9.30;55.50
5192;DHT22;2615;44.524;11.284;2024-02-15T01:42:04;9.30;55.60
5192;DHT22;2615;44.524;11.284;2024-02-15T01:44:32;9.30;55.60
5192;DHT22;2615;44.524;11.284;2024-02-15T01:47:01;9.30;55.60
5192;DHT22;2615;44.524;11.284;2024-02-15T01:49:29;9.30;55.60
5192;DHT22;2615;44.524;11.284;2024-02-15T01:51:57;9.20;55.50
5192;DHT22;2615;44.524;11.284;2024-02-15T01:54:28;9.20;55.60
5192;DHT22;2615;44.524;11.284;2024-02-15T01:56:56;9.20;55.60
5192;DHT22;2615;44.524;11.284;2024-02-15T01:59:25;9.20;55.60
5192;DHT22;2615;44.524;11.284;2024-02-15T02:01:53;9.20;55.60
5192;DHT22;2615;44.524;11.284;2024-02-15T02:04:21;9.20;55.60
5192;DHT22;2615;44.524;11.284;2024-02-15T02:06:50;9.20;55.60
5192;DHT22;2615;44.524;11.284;2024-02-15T02:09:18;9.20;55.70
5192;DHT22;2615;44.524;11.284;2024-02-15T02:11:47;9.20;55.60
5192;DHT22;2615;44.524;11.284;2024-02-15T02:14:16;9.20;55.60
5192;DHT22;2615;44.524;11.284;2024-02-15T02:16:47;9.20;55.60
5192;DHT22;2615;44.524;11.284;2024-02-15T02:19:16;9.20;55.70
5192;DHT22;2615;44.524;11.284;2024-02-15T02:21:44;9.10;55.60
5192;DHT22;2615;44.524;11.284;2024-02-15T02:24:21;9.10;55.60
5192;DHT22;2615;44.524;11.284;2024-02-15T02:26:52;9.10;55.60
5192;DHT22;2615;44.524;11.284;2024-02-15T02:29:21;9.10;55.60
5192;DHT22;2615;44.524;11.284;2024-02-15T02:31:49;9.10;55.60
5192;DHT22;2615;44.524;11.284;2024-02-15T02:34:17;9.10;55.60
5192;DHT22;2615;44.524;11.284;2024-02-15T02:36:46;9.10;55.70
5192;DHT22;2615;44.524;11.284;2024-02-15T02:39:15;9.10;55.70
5192;DHT22;2615;44.524;11.284;2024-02-15T02:41:43;9.10;55.70
5192;DHT22;2615;44.524;11.284;2024-02-15T02:44:13;9.10;55.70
5192;DHT22;2615;44.524;11.284;2024-02-15T02:46:42;9.10;55.70
5192;DHT22;2615;44.524;11.284;2024-02-15T02:49:10;9.10;55.70
5192;DHT22;2615;44.524;11.284;2024-02-15T02:51:39;9.00;55.70
5192;DHT22;2615;44.524;11.284;2024-02-15T02:54:07;9.00;55.70
5192;DHT22;2615;44.524;11.284;2024-02-15T02:56:35;9.00;55.70
5192;DHT22;2615;44.524;11.284;2024-02-15T02:59:03;9.00;55.80
5192;DHT22;2615;44.524;11.284;2024-02-15T03:01:35;9.00;55.80
5192;DHT22;2615;44.524;11.284;2024-02-15T03:04:03;9.00;55.80
5192;DHT22;2615;44.524;11.284;2024-02-15T03:06:32;9.00;55.80
5192;DHT22;2615;44.524;11.284;2024-02-15T03:09:01;9.00;55.80
5192;DHT22;2615;44.524;11.284;2024-02-15T03:11:34;9.00;55.80
5192;DHT22;2615;44.524;11.284;2024-02-15T03:14:02;9.00;55.80
5192;DHT22;2615;44.524;11.284;2024-02-15T03:16:31;9.00;55.80
5192;DHT22;2615;44.524;11.284;2024-02-15T03:19:00;9.00;55.80
5192;DHT22;2615;44.524;11.284;2024-02-15T03:21:29;9.00;55.80
5192;DHT22;2615;44.524;11.284;2024-02-15T03:23:58;8.90;55.80
5192;DHT22;2615;44.524;11.284;2024-02-15T03:26:30;8.90;55.80
5192;DHT22;2615;44.524;11.284;2024-02-15T03:29:00;8.90;55.90
5192;DHT22;2615;44.524;11.284;2024-02-15T03:31:29;8.90;55.90
5192;DHT22;2615;44.524;11.284;2024-02-15T03:33:57;8.90;55.90
5192;DHT22;2615;44.524;11.284;2024-02-15T03:36:28;8.90;55.90
5192;DHT22;2615;44.524;11.284;2024-02-15T03:38:56;8.90;55.90
5192;DHT22;2615;44.524;11.284;2024-02-15T03:41:27;8.90;55.90
5192;DHT22;2615;44.524;11.284;2024-02-15T03:43:57;8.80;55.90
5192;DHT22;2615;44.524;11.284;2024-02-15T03:46:26;8.80;55.90
5192;DHT22;2615;44.524;11.284;2024-02-15T03:48:55;8.80;56.00
5192;DHT22;2615;44.524;11.284;2024-02-15T03:51:24;8.80;56.00
5192;DHT22;2615;44.524;11.284;2024-02-15T03:53:53;8.70;56.00
5192;DHT22;2615;44.524;11.284;2024-02-15T03:56:22;8.70;56.00
5192;DHT22;2615;44.524;11.284;2024-02-15T03:58:50;8.70;56.00
5192;DHT22;2615;44.524;11.284;2024-02-15T04:01:18;8.60;56.00
5192;DHT22;2615;44.524;11.284;2024-02-15T04:03:46;8.60;56.00
5192;DHT22;2615;44.524;11.284;2024-02-15T04:06:15;8.60;56.10
5192;DHT22;2615;44.524;11.284;2024-02-15T04:08:43;8.60;56.10
5192;DHT22;2615;44.524;11.284;2024-02-15T04:11:13;8.60;56.10
5192;DHT22;2615;44.524;11.284;2024-02-15T04:13:43;8.50;56.10
5192;DHT22;2615;44.524;11.284;2024-02-15T04:16:11;8.50;56.10
5192;DHT22;2615;44.524;11.284;2024-02-15T04:18:40;8.40;56.10
5192;DHT22;2615;44.524;11.284;2024-02-15T04:21:09;8.40;56.40
5192;DHT22;2615;44.524;11.284;2024-02-15T04:23:37;8.40;56.10
5192;DHT22;2615;44.524;11.284;2024-02-15T04:26:06;8.40;56.20
5192;DHT22;2615;44.524;11.284;2024-02-15T04:28:35;8.40;56.20
5192;DHT22;2615;44.524;11.284;2024-02-15T04:31:04;8.40;56.30
5192;DHT22;2615;44.524;11.284;2024-02-15T04:33:35;8.30;56.20
5192;DHT22;2615;44.524;11.284;2024-02-15T04:38:33;8.30;55.80
5192;DHT22;2615;44.524;11.284;2024-02-15T04:41:02;8.20;56.20
5192;DHT22;2615;44.524;11.284;2024-02-15T04:43:32;8.20;56.30
5192;DHT22;2615;44.524;11.284;2024-02-15T04:46:01;8.20;56.30
5192;DHT22;2615;44.524;11.284;2024-02-15T04:48:33;8.10;56.20
5192;DHT22;2615;44.524;11.284;2024-02-15T04:51:02;8.10;56.30
5192;DHT22;2615;44.524;11.284;2024-02-15T04:53:30;8.10;56.30
5192;DHT22;2615;44.524;11.284;2024-02-15T04:55:59;8.10;56.30
5192;DHT22;2615;44.524;11.284;2024-02-15T04:58:27;8.10;56.40
5192;DHT22;2615;44.524;11.284;2024-02-15T05:00:56;8.00;56.40
5192;DHT22;2615;44.524;11.284;2024-02-15T05:03:28;8.00;56.40
5192;DHT22;2615;44.524;11.284;2024-02-15T05:05:56;8.00;56.40
5192;DHT22;2615;44.524;11.284;2024-02-15T05:08:24;8.00;56.50
5192;DHT22;2615;44.524;11.284;2024-02-15T05:10:53;8.00;56.50
5192;DHT22;2615;44.524;11.284;2024-02-15T05:13:24;8.00;56.50
5192;DHT22;2615;44.524;11.284;2024-02-15T05:15:52;8.00;56.60
5192;DHT22;2615;44.524;11.284;2024-02-15T05:18:21;8.00;56.60
5192;DHT22;2615;44.524;11.284;2024-02-15T05:20:51;8.00;56.60
5192;DHT22;2615;44.524;11.284;2024-02-15T05:23:19;8.00;56.60
5192;DHT22;2615;44.524;11.284;2024-02-15T05:25:47;8.00;56.70
5192;DHT22;2615;44.524;11.284;2024-02-15T05:28:15;7.90;56.60
5192;DHT22;2615;44.524;11.284;2024-02-15T05:30:44;7.90;56.60
5192;DHT22;2615;44.524;11.284;2024-02-15T05:33:12;7.90;56.70
5192;DHT22;2615;44.524;11.284;2024-02-15T05:35:41;7.90;56.70
5192;DHT22;2615;44.524;11.284;2024-02-15T05:38:14;8.00;56.80
5192;DHT22;2615;44.524;11.284;2024-02-15T05:40:44;7.90;56.70
5192;DHT22;2615;44.524;11.284;2024-02-15T05:43:12;7.90;56.60
5192;DHT22;2615;44.524;11.284;2024-02-15T05:45:40;7.90;56.70
5192;DHT22;2615;44.524;11.284;2024-02-15T05:48:09;7.90;56.70
5192;DHT22;2615;44.524;11.284;2024-02-15T05:50:39;7.90;56.70
5192;DHT22;2615;44.524;11.284;2024-02-15T05:53:08;7.90;56.80
5192;DHT22;2615;44.524;11.284;2024-02-15T05:55:37;7.90;56.80
5192;DHT22;2615;44.524;11.284;2024-02-15T05:58:07;7.90;56.80
5192;DHT22;2615;44.524;11.284;2024-02-15T06:00:37;7.90;56.80
5192;DHT22;2615;44.524;11.284;2024-02-15T06:03:07;7.90;56.80
5192;DHT22;2615;44.524;11.284;2024-02-15T06:05:36;7.90;56.80
5192;DHT22;2615;44.524;11.284;2024-02-15T06:08:05;7.90;56.80
5192;DHT22;2615;44.524;11.284;2024-02-15T06:10:33;7.90;56.80
5192;DHT22;2615;44.524;11.284;2024-02-15T06:13:03;7.90;57.40
5192;DHT22;2615;44.524;11.284;2024-02-15T06:15:31;7.90;56.90
5192;DHT22;2615;44.524;11.284;2024-02-15T06:18:00;7.90;56.90
5192;DHT22;2615;44.524;11.284;2024-02-15T06:20:28;7.90;56.90
5192;DHT22;2615;44.524;11.284;2024-02-15T06:22:57;7.90;56.90
5192;DHT22;2615;44.524;11.284;2024-02-15T06:25:25;8.00;57.00
5192;DHT22;2615;44.524;11.284;2024-02-15T06:27:53;8.00;57.00
5192;DHT22;2615;44.524;11.284;2024-02-15T06:30:28;8.00;57.00
5192;DHT22;2615;44.524;11.284;2024-02-15T06:33:14;8.00;57.00
5192;DHT22;2615;44.524;11.284;2024-02-15T06:36:05;8.00;56.90
5192;DHT22;2615;44.524;11.284;2024-02-15T06:38:51;8.10;57.00
5192;DHT22;2615;44.524;11.284;2024-02-15T06:41:36;8.10;56.90
5192;DHT22;2615;44.524;11.284;2024-02-15T06:44:04;8.10;56.90
5192;DHT22;2615;44.524;11.284;2024-02-15T06:46:34;8.10;56.90
5192;DHT22;2615;44.524;11.284;2024-02-15T06:49:02;8.10;57.50
5192;DHT22;2615;44.524;11.284;2024-02-15T06:51:32;8.20;57.00
5192;DHT22;2615;44.524;11.284;2024-02-15T06:54:00;8.20;57.00
5192;DHT22;2615;44.524;11.284;2024-02-15T06:56:28;8.20;57.00
5192;DHT22;2615;44.524;11.284;2024-02-15T06:58:57;8.30;57.10
5192;DHT22;2615;44.524;11.284;2024-02-15T07:01:25;8.30;57.00
5192;DHT22;2615;44.524;11.284;2024-02-15T07:03:55;8.40;57.10
5192;DHT22;2615;44.524;11.284;2024-02-15T07:06:25;8.40;57.10
5192;DHT22;2615;44.524;11.284;2024-02-15T07:08:55;8.40;57.10
5192;DHT22;2615;44.524;11.284;2024-02-15T07:11:25;8.50;57.10
5192;DHT22;2615;44.524;11.284;2024-02-15T07:13:53;8.60;57.10
5192;DHT22;2615;44.524;11.284;2024-02-15T07:16:21;8.60;57.10
5192;DHT22;2615;44.524;11.284;2024-02-15T07:18:50;8.60;57.10
5192;DHT22;2615;44.524;11.284;2024-02-15T07:21:21;8.70;57.10
5192;DHT22;2615;44.524;11.284;2024-02-15T07:23:53;8.80;57.10
5192;DHT22;2615;44.524;11.284;2024-02-15T07:26:21;8.90;57.10
5192;DHT22;2615;44.524;11.284;2024-02-15T07:28:51;8.90;57.10
5192;DHT22;2615;44.524;11.284;2024-02-15T07:31:20;9.00;57.10
5192;DHT22;2615;44.524;11.284;2024-02-15T07:33:50;9.00;57.10
5192;DHT22;2615;44.524;11.284;2024-02-15T07:36:22;9.10;57.60
5192;DHT22;2615;44.524;11.284;2024-02-15T07:38:51;9.20;57.00
5192;DHT22;2615;44.524;11.284;2024-02-15T07:41:20;9.30;57.10
5192;DHT22;2615;44.524;11.284;2024-02-15T07:43:49;9.30;57.00
5192;DHT22;2615;44.524;11.284;2024-02-15T07:46:19;9.40;57.00
5192;DHT22;2615;44.524;11.284;2024-02-15T07:48:48;9.50;57.00
5192;DHT22;2615;44.524;11.284;2024-02-15T07:51:18;9.60;57.10
5192;DHT22;2615;44.524;11.284;2024-02-15T07:53:48;9.70;57.00
5192;DHT22;2615;44.524;11.284;2024-02-15T07:56:17;9.80;56.90
5192;DHT22;2615;44.524;11.284;2024-02-15T07:58:48;9.90;56.90
5192;DHT22;2615;44.524;11.284;2024-02-15T08:01:20;10.00;56.00
5192;DHT22;2615;44.524;11.284;2024-02-15T08:03:51;10.10;56.00
5192;DHT22;2615;44.524;11.284;2024-02-15T08:06:22;10.20;56.00
5192;DHT22;2615;44.524;11.284;2024-02-15T08:08:54;10.30;56.00
5192;DHT22;2615;44.524;11.284;2024-02-15T08:11:22;10.40;55.90
5192;DHT22;2615;44.524;11.284;2024-02-15T08:13:53;10.50;55.90
5192;DHT22;2615;44.524;11.284;2024-02-15T08:16:25;10.70;55.90
5192;DHT22;2615;44.524;11.284;2024-02-15T08:18:55;10.80;55.80
5192;DHT22;2615;44.524;11.284;2024-02-15T08:21:28;10.90;55.70
5192;DHT22;2615;44.524;11.284;2024-02-15T08:23:59;11.10;55.80
5192;DHT22;2615;44.524;11.284;2024-02-15T08:26:32;11.20;55.60
5192;DHT22;2615;44.524;11.284;2024-02-15T08:29:02;11.30;55.60
5192;DHT22;2615;44.524;11.284;2024-02-15T08:31:31;11.50;55.70
5192;DHT22;2615;44.524;11.284;2024-02-15T08:33:59;11.60;55.60
5192;DHT22;2615;44.524;11.284;2024-02-15T08:36:27;11.70;55.40
5192;DHT22;2615;44.524;11.284;2024-02-15T08:38:58;11.80;55.40
5192;DHT22;2615;44.524;11.284;2024-02-15T08:41:27;11.90;55.30
5192;DHT22;2615;44.524;11.284;2024-02-15T08:43:55;12.10;55.30
5192;DHT22;2615;44.524;11.284;2024-02-15T08:46:25;12.20;55.10
5192;DHT22;2615;44.524;11.284;2024-02-15T08:48:54;12.20;54.90
5192;DHT22;2615;44.524;11.284;2024-02-15T08:51:22;12.30;54.80
5192;DHT22;2615;44.524;11.284;2024-02-15T08:53:51;12.30;54.70
5192;DHT22;2615;44.524;11.284;2024-02-15T08:56:21;12.30;54.70
5192;DHT22;2615;44.524;11.284;2024-02-15T08:58:49;12.30;54.60
5192;DHT22;2615;44.524;11.284;2024-02-15T09:01:18;12.40;54.60
5192;DHT22;2615;44.524;11.284;2024-02-15T09:03:46;12.40;54.60
5192;DHT22;2615;44.524;11.284;2024-02-15T09:06:14;12.40;54.60
5192;DHT22;2615;44.524;11.284;2024-02-15T09:08:43;12.40;54.50
5192;DHT22;2615;44.524;11.284;2024-02-15T09:11:11;12.40;54.50
5192;DHT22;2615;44.524;11.284;2024-02-15T09:13:41;12.40;54.50
5192;DHT22;2615;44.524;11.284;2024-02-15T09:16:09;12.40;54.50
5192;DHT22;2615;44.524;11.284;2024-02-15T09:18:39;12.50;54.50
5192;DHT22;2615;44.524;11.284;2024-02-15T09:21:12;12.50;54.40
5192;DHT22;2615;44.524;11.284;2024-02-15T09:23:41;12.50;54.20
5192;DHT22;2615;44.524;11.284;2024-02-15T09:26:09;12.50;54.20
5192;DHT22;2615;44.524;11.284;2024-02-15T09:28:41;12.60;54.20
5192;DHT22;2615;44.524;11.284;2024-02-15T09:31:11;12.60;54.20
5192;DHT22;2615;44.524;11.284;2024-02-15T09:33:40;12.70;54.30
5192;DHT22;2615;44.524;11.284;2024-02-15T09:36:09;12.80;54.30
5192;DHT22;2615;44.524;11.284;2024-02-15T09:38:39;12.90;54.20
5192;DHT22;2615;44.524;11.284;2024-02-15T09:41:07;13.10;54.30
5192;DHT22;2615;44.524;11.284;2024-02-15T09:43:35;13.30;54.30
5192;DHT22;2615;44.524;11.284;2024-02-15T09:46:05;13.40;54.10
5192;DHT22;2615;44.524;11.284;2024-02-15T09:48:34;13.60;54.10
5192;DHT22;2615;44.524;11.284;2024-02-15T09:51:04;13.80;54.10
5192;DHT22;2615;44.524;11.284;2024-02-15T09:53:32;14.00;54.00
5192;DHT22;2615;44.524;11.284;2024-02-15T09:56:02;14.10;53.90
5192;DHT22;2615;44.524;11.284;2024-02-15T09:58:34;14.30;53.90
5192;DHT22;2615;44.524;11.284;2024-02-15T10:01:05;14.50;53.70
5192;DHT22;2615;44.524;11.284;2024-02-15T10:03:37;14.60;53.60
5192;DHT22;2615;44.524;11.284;2024-02-15T10:06:07;14.80;53.60
5192;DHT22;2615;44.524;11.284;2024-02-15T10:08:36;15.00;53.50
5192;DHT22;2615;44.524;11.284;2024-02-15T10:11:08;15.20;53.20
5192;DHT22;2615;44.524;11.284;2024-02-15T10:13:37;15.30;53.10
5192;DHT22;2615;44.524;11.284;2024-02-15T10:16:18;15.50;53.10
5192;DHT22;2615;44.524;11.284;2024-02-15T10:18:47;15.70;53.00
5192;DHT22;2615;44.524;11.284;2024-02-15T10:21:25;15.90;52.90
5192;DHT22;2615;44.524;11.284;2024-02-15T10:24:04;16.00;52.70
5192;DHT22;2615;44.524;11.284;2024-02-15T10:26:34;16.20;52.50
5192;DHT22;2615;44.524;11.284;2024-02-15T10:29:07;16.30;52.40
5192;DHT22;2615;44.524;11.284;2024-02-15T10:31:40;16.40;52.30
5192;DHT22;2615;44.524;11.284;2024-02-15T10:34:20;16.70;52.50
5192;DHT22;2615;44.524;11.284;2024-02-15T10:36:49;17.10;52.60
5192;DHT22;2615;44.524;11.284;2024-02-15T10:39:18;17.40;52.90
5192;DHT22;2615;44.524;11.284;2024-02-15T10:41:48;17.60;52.00
5192;DHT22;2615;44.524;11.284;2024-02-15T10:44:18;17.70;52.20
5192;DHT22;2615;44.524;11.284;2024-02-15T10:46:48;17.90;51.50
5192;DHT22;2615;44.524;11.284;2024-02-15T10:49:19;17.90;51.20
5192;DHT22;2615;44.524;11.284;2024-02-15T10:51:54;18.00;51.20
5192;DHT22;2615;44.524;11.284;2024-02-15T10:54:42;18.00;51.00
5192;DHT22;2615;44.524;11.284;2024-02-15T10:57:11;18.10;50.80
5192;DHT22;2615;44.524;11.284;2024-02-15T10:59:47;18.20;50.90
5192;DHT22;2615;44.524;11.284;2024-02-15T11:05:02;18.40;50.00
5192;DHT22;2615;44.524;11.284;2024-02-15T11:07:32;18.30;50.20
5192;DHT22;2615;44.524;11.284;2024-02-15T11:10:02;18.40;50.30
5192;DHT22;2615;44.524;11.284;2024-02-15T11:12:31;18.60;50.50
5192;DHT22;2615;44.524;11.284;2024-02-15T11:15:00;18.90;50.50
5192;DHT22;2615;44.524;11.284;2024-02-15T11:17:48;19.00;50.20
5192;DHT22;2615;44.524;11.284;2024-02-15T11:20:51;19.00;49.60
5192;DHT22;2615;44.524;11.284;2024-02-15T11:23:26;18.80;49.50
5192;DHT22;2615;44.524;11.284;2024-02-15T11:25:58;18.80;50.30
5192;DHT22;2615;44.524;11.284;2024-02-15T11:28:37;18.90;49.80
5192;DHT22;2615;44.524;11.284;2024-02-15T11:31:10;19.00;49.50
5192;DHT22;2615;44.524;11.284;2024-02-15T11:33:43;19.00;49.50
5192;DHT22;2615;44.524;11.284;2024-02-15T11:36:12;18.90;49.40
5192;DHT22;2615;44.524;11.284;2024-02-15T11:38:43;18.90;49.30
5192;DHT22;2615;44.524;11.284;2024-02-15T11:41:11;18.90;49.30
5192;DHT22;2615;44.524;11.284;2024-02-15T11:43:47;18.90;49.20
5192;DHT22;2615;44.524;11.284;2024-02-15T11:46:25;19.00;49.10
5192;DHT22;2615;44.524;11.284;2024-02-15T11:48:58;19.00;49.10
5192;DHT22;2615;44.524;11.284;2024-02-15T11:51:29;19.20;49.10
5192;DHT22;2615;44.524;11.284;2024-02-15T11:53:59;19.40;49.10
5192;DHT22;2615;44.524;11.284;2024-02-15T11:56:27;19.50;48.90
5192;DHT22;2615;44.524;11.284;2024-02-15T11:59:03;19.80;48.90
5192;DHT22;2615;44.524;11.284;2024-02-15T12:01:33;20.10;48.70
5192;DHT22;2615;44.524;11.284;2024-02-15T12:04:20;20.40;48.60
5192;DHT22;2615;44.524;11.284;2024-02-15T12:07:06;20.60;48.40
5192;DHT22;2615;44.524;11.284;2024-02-15T12:09:58;20.90;48.40
5192;DHT22;2615;44.524;11.284;2024-02-15T12:12:50;21.20;48.20
5192;DHT22;2615;44.524;11.284;2024-02-15T12:15:36;21.80;48.30
5192;DHT22;2615;44.524;11.284;2024-02-15T12:18:22;22.50;48.40
5192;DHT22;2615;44.524;11.284;2024-02-15T12:21:17;23.40;48.30
5192;DHT22;2615;44.524;11.284;2024-02-15T12:23:48;24.50;47.90
5192;DHT22;2615;44.524;11.284;2024-02-15T12:26:19;25.50;47.40
5192;DHT22;2615;44.524;11.284;2024-02-15T12:28:50;26.30;46.30
5192;DHT22;2615;44.524;11.284;2024-02-15T12:31:22;27.10;45.40
5192;DHT22;2615;44.524;11.284;2024-02-15T12:34:00;27.70;44.60
5192;DHT22;2615;44.524;11.284;2024-02-15T12:36:31;28.20;43.60
5192;DHT22;2615;44.524;11.284;2024-02-15T12:39:01;28.70;43.20
5192;DHT22;2615;44.524;11.284;2024-02-15T12:41:30;29.20;42.60
5192;DHT22;2615;44.524;11.284;2024-02-15T12:49:17;30.60;40.00
5192;DHT22;2615;44.524;11.284;2024-02-15T12:55:13;31.30;39.00
5192;DHT22;2615;44.524;11.284;2024-02-15T12:57:45;31.40;38.50
5192;DHT22;2615;44.524;11.284;2024-02-15T13:00:18;31.40;38.30
5192;DHT22;2615;44.524;11.284;2024-02-15T13:02:48;31.40;37.90
5192;DHT22;2615;44.524;11.284;2024-02-15T13:05:17;31.50;37.60
5192;DHT22;2615;44.524;11.284;2024-02-15T13:07:48;31.50;37.20
5192;DHT22;2615;44.524;11.284;2024-02-15T13:10:17;31.50;36.80
5192;DHT22;2615;44.524;11.284;2024-02-15T13:12:46;31.60;36.70
5192;DHT22;2615;44.524;11.284;2024-02-15T13:15:16;31.70;36.40
5192;DHT22;2615;44.524;11.284;2024-02-15T13:17:47;31.70;36.00
5192;DHT22;2615;44.524;11.284;2024-02-15T13:20:18;31.50;35.80
5192;DHT22;2615;44.524;11.284;2024-02-15T13:22:58;31.30;35.70
5192;DHT22;2615;44.524;11.284;2024-02-15T13:25:29;31.00;35.40
5192;DHT22;2615;44.524;11.284;2024-02-15T13:27:58;30.70;35.80
5192;DHT22;2615;44.524;11.284;2024-02-15T13:30:26;30.40;35.20
5192;DHT22;2615;44.524;11.284;2024-02-15T13:32:54;30.00;35.20
5192;DHT22;2615;44.524;11.284;2024-02-15T13:35:23;29.70;35.40
5192;DHT22;2615;44.524;11.284;2024-02-15T13:37:53;29.30;35.60
5192;DHT22;2615;44.524;11.284;2024-02-15T13:40:23;28.80;35.70
5192;DHT22;2615;44.524;11.284;2024-02-15T13:42:53;28.50;35.80
5192;DHT22;2615;44.524;11.284;2024-02-15T13:45:24;28.10;35.90
5192;DHT22;2615;44.524;11.284;2024-02-15T13:47:56;27.50;36.10
5192;DHT22;2615;44.524;11.284;2024-02-15T13:50:25;27.00;36.40
5192;DHT22;2615;44.524;11.284;2024-02-15T13:52:53;26.40;36.60
5192;DHT22;2615;44.524;11.284;2024-02-15T13:55:22;26.00;36.90
5192;DHT22;2615;44.524;11.284;2024-02-15T13:57:52;25.50;37.20
5192;DHT22;2615;44.524;11.284;2024-02-15T14:00:23;25.20;37.60
5192;DHT22;2615;44.524;11.284;2024-02-15T14:02:58;24.80;37.70
5192;DHT22;2615;44.524;11.284;2024-02-15T14:05:28;24.40;37.80
5192;DHT22;2615;44.524;11.284;2024-02-15T14:07:58;24.00;38.00
5192;DHT22;2615;44.524;11.284;2024-02-15T14:10:28;23.70;38.20
5192;DHT22;2615;44.524;11.284;2024-02-15T14:12:57;23.40;38.40
5192;DHT22;2615;44.524;11.284;2024-02-15T14:15:26;23.20;38.60
5192;DHT22;2615;44.524;11.284;2024-02-15T14:17:55;23.20;38.80
5192;DHT22;2615;44.524;11.284;2024-02-15T14:20:24;23.10;38.90
5192;DHT22;2615;44.524;11.284;2024-02-15T14:22:53;23.00;39.00
5192;DHT22;2615;44.524;11.284;2024-02-15T14:25:23;22.80;39.10
5192;DHT22;2615;44.524;11.284;2024-02-15T14:27:55;22.50;39.20
5192;DHT22;2615;44.524;11.284;2024-02-15T14:30:24;22.20;39.40
5192;DHT22;2615;44.524;11.284;2024-02-15T14:33:10;22.10;39.80
5192;DHT22;2615;44.524;11.284;2024-02-15T14:35:49;21.90;40.00
5192;DHT22;2615;44.524;11.284;2024-02-15T14:38:20;21.80;40.00
5192;DHT22;2615;44.524;11.284;2024-02-15T14:40:49;21.60;40.00
5192;DHT22;2615;44.524;11.284;2024-02-15T14:43:23;21.50;40.10
5192;DHT22;2615;44.524;11.284;2024-02-15T14:45:53;21.40;40.20
5192;DHT22;2615;44.524;11.284;2024-02-15T14:48:23;21.20;40.40
5192;DHT22;2615;44.524;11.284;2024-02-15T14:50:53;21.00;40.60
5192;DHT22;2615;44.524;11.284;2024-02-15T14:53:23;20.70;40.70
5192;DHT22;2615;44.524;11.284;2024-02-15T14:55:52;20.50;41.50
5192;DHT22;2615;44.524;11.284;2024-02-15T14:58:21;20.30;41.10
5192;DHT22;2615;44.524;11.284;2024-02-15T15:00:50;20.10;41.20
5192;DHT22;2615;44.524;11.284;2024-02-15T15:03:30;19.90;41.50
5192;DHT22;2615;44.524;11.284;2024-02-15T15:05:59;19.80;41.70
5192;DHT22;2615;44.524;11.284;2024-02-15T15:08:44;19.70;41.90
5192;DHT22;2615;44.524;11.284;2024-02-15T15:11:30;19.60;42.00
5192;DHT22;2615;44.524;11.284;2024-02-15T15:14:17;19.50;42.10
5192;DHT22;2615;44.524;11.284;2024-02-15T15:16:46;19.40;42.30
5192;DHT22;2615;44.524;11.284;2024-02-15T15:19:15;19.40;42.50
5192;DHT22;2615;44.524;11.284;2024-02-15T15:21:44;19.20;42.60
5192;DHT22;2615;44.524;11.284;2024-02-15T15:24:12;19.20;42.70
5192;DHT22;2615;44.524;11.284;2024-02-15T15:26:40;19.10;42.90
5192;DHT22;2615;44.524;11.284;2024-02-15T15:29:09;19.00;43.00
5192;DHT22;2615;44.524;11.284;2024-02-15T15:31:39;18.90;43.20
5192;DHT22;2615;44.524;11.284;2024-02-15T15:34:07;19.00;43.50
5192;DHT22;2615;44.524;11.284;2024-02-15T15:36:36;18.90;43.40
5192;DHT22;2615;44.524;11.284;2024-02-15T15:39:04;18.90;43.50
5192;DHT22;2615;44.524;11.284;2024-02-15T15:41:36;18.70;43.60
5192;DHT22;2615;44.524;11.284;2024-02-15T15:44:05;18.60;43.70
5192;DHT22;2615;44.524;11.284;2024-02-15T15:46:33;18.50;43.80
5192;DHT22;2615;44.524;11.284;2024-02-15T15:49:04;18.30;43.90
5192;DHT22;2615;44.524;11.284;2024-02-15T15:51:33;18.20;44.10
5192;DHT22;2615;44.524;11.284;2024-02-15T15:54:01;18.00;44.20
5192;DHT22;2615;44.524;11.284;2024-02-15T15:56:32;17.90;44.40
5192;DHT22;2615;44.524;11.284;2024-02-15T15:59:01;17.70;44.50
5192;DHT22;2615;44.524;11.284;2024-02-15T16:01:33;17.60;44.70
5192;DHT22;2615;44.524;11.284;2024-02-15T16:04:04;17.40;44.80
5192;DHT22;2615;44.524;11.284;2024-02-15T16:06:33;17.30;45.10
5192;DHT22;2615;44.524;11.284;2024-02-15T16:09:01;17.10;45.20
5192;DHT22;2615;44.524;11.284;2024-02-15T16:11:31;17.00;45.40
5192;DHT22;2615;44.524;11.284;2024-02-15T16:14:00;16.90;45.60
5192;DHT22;2615;44.524;11.284;2024-02-15T16:16:29;16.80;45.70
5192;DHT22;2615;44.524;11.284;2024-02-15T16:18:57;16.70;45.80
5192;DHT22;2615;44.524;11.284;2024-02-15T16:21:28;16.60;46.00
5192;DHT22;2615;44.524;11.284;2024-02-15T16:23:56;16.50;46.10
5192;DHT22;2615;44.524;11.284;2024-02-15T16:26:25;16.40;46.20
5192;DHT22;2615;44.524;11.284;2024-02-15T16:28:53;16.30;46.30